Terminal Aerodrome Forecast
Issued by NWS

Home | Current Version | Previous Version | Text Only | Print | Product List | Glossary On
Versions: 1 2 3 4 5 6 7 8 9 10 11 12 13 14 15 16 17
406
FTUS44 KMAF 031127
TAFPEQ
TAF
KPEQ 031127Z 0312/0412 34010KT P6SM OVC012
      TEMPO 0312/0316 3SM -RA BR BKN005
     FM032300 04009KT 4SM -RA BKN005
     FM040700 06009KT 2SM -DZ OVC003=

USA.gov is the U.S. government's official web portal to all federal, state and local government web resources and services.